createdAt,value
2019-03-26T00:02:17.293Z,101424.39
2019-03-26T00:04:48.721Z,101422.70
2019-03-26T00:07:21.103Z,101427.59
2019-03-26T00:09:52.628Z,101429.89
2019-03-26T00:12:24.054Z,101431.75
2019-03-26T00:14:55.506Z,101434.86
2019-03-26T00:17:29.874Z,101431.42
2019-03-26T00:20:01.536Z,101435.42
2019-03-26T00:22:32.871Z,101437.63
2019-03-26T00:25:05.649Z,101441.20
2019-03-26T00:27:38.018Z,101456.91
2019-03-26T00:30:09.453Z,101456.48
2019-03-26T00:32:40.880Z,101462.57
2019-03-26T00:35:12.624Z,101457.77
2019-03-26T00:37:44.026Z,101461.65
2019-03-26T00:40:16.424Z,101457.66
2019-03-26T00:42:47.856Z,101473.65
2019-03-26T00:45:19.191Z,101467.83
2019-03-26T00:47:50.519Z,101472.12
2019-03-26T00:50:21.950Z,101480.43
2019-03-26T00:52:53.383Z,101480.81
2019-03-26T00:55:24.810Z,101474.13
2019-03-26T00:57:56.144Z,101485.50
2019-03-26T01:00:42.573Z,101490.30
2019-03-26T01:03:13.910Z,101495.05
2019-03-26T01:05:45.717Z,101504.25
2019-03-26T01:08:17.037Z,101500.31
2019-03-26T01:10:48.367Z,101508.58
2019-03-26T01:13:19.681Z,101505.02
2019-03-26T01:15:51.159Z,101511.14
2019-03-26T01:18:22.479Z,101509.80
2019-03-26T01:20:53.809Z,101511.91
2019-03-26T01:23:25.141Z,101512.81
2019-03-26T01:25:56.669Z,101511.41
2019-03-26T01:28:27.989Z,101510.12
2019-03-26T01:30:59.317Z,101504.38
2019-03-26T01:33:30.633Z,101510.03
2019-03-26T01:36:03.026Z,101507.39
2019-03-26T01:38:34.557Z,101511.76
2019-03-26T01:41:05.883Z,101503.33
2019-03-26T01:43:37.503Z,101514.67
2019-03-26T01:46:08.921Z,101510.66
2019-03-26T01:48:40.238Z,101514.19
2019-03-26T01:51:11.558Z,101512.46
2019-03-26T01:53:42.972Z,101509.80
2019-03-26T01:56:14.303Z,101516.38
2019-03-26T01:58:45.619Z,101506.27
2019-03-26T02:01:16.940Z,101506.52
2019-03-26T02:03:48.451Z,101515.59
2019-03-26T02:06:19.772Z,101515.11
2019-03-26T02:08:51.393Z,101512.48
2019-03-26T02:11:22.717Z,101509.36
2019-03-26T02:13:54.712Z,101504.52
2019-03-26T02:16:26.042Z,101508.15
2019-03-26T02:18:57.370Z,101510.33
2019-03-26T02:21:31.411Z,101511.27
2019-03-26T02:24:02.755Z,101507.77
2019-03-26T02:26:34.079Z,101506.84
2019-03-26T02:29:05.402Z,101503.41
2019-03-26T02:31:36.729Z,101509.98
2019-03-26T02:34:08.048Z,101511.33
2019-03-26T02:36:40.267Z,101513.45
2019-03-26T02:39:11.663Z,101514.16
2019-03-26T02:41:42.994Z,101520.28
2019-03-26T02:44:14.416Z,101523.46
2019-03-26T02:46:45.736Z,101519.94
2019-03-26T02:49:17.073Z,101510.25
2019-03-26T02:51:48.400Z,101512.30
2019-03-26T02:54:19.711Z,101515.83
2019-03-26T02:56:51.136Z,101511.37
2019-03-26T02:59:22.471Z,101503.44
2019-03-26T03:01:53.869Z,101505.97
2019-03-26T03:04:25.532Z,101498.11
2019-03-26T03:06:56.893Z,101498.43
2019-03-26T03:09:28.214Z,101497.05
2019-03-26T03:11:59.917Z,101494.45
2019-03-26T03:14:31.241Z,101498.81
2019-03-26T03:17:02.560Z,101486.94
2019-03-26T03:19:33.880Z,101488.66
2019-03-26T03:22:05.480Z,101485.66
2019-03-26T03:24:36.963Z,101476.03
2019-03-26T03:27:08.290Z,101486.14
2019-03-26T03:29:40.787Z,101489.98
2019-03-26T03:32:12.126Z,101491.75
2019-03-26T03:34:43.446Z,101499.26
2019-03-26T03:37:14.771Z,101499.70
2019-03-26T03:39:46.103Z,101494.03
2019-03-26T03:42:17.427Z,101496.56
2019-03-26T03:44:48.766Z,101490.50
2019-03-26T03:47:20.082Z,101494.03
2019-03-26T03:49:51.411Z,101490.57
2019-03-26T03:52:22.729Z,101488.84
2019-03-26T03:54:54.154Z,101494.14
2019-03-26T03:57:25.750Z,101505.55
2019-03-26T03:59:57.078Z,101514.77
2019-03-26T04:02:28.407Z,101502.06
2019-03-26T04:04:59.731Z,101502.44
2019-03-26T04:07:31.145Z,101510.43
2019-03-26T04:10:02.487Z,101511.33
2019-03-26T04:12:33.798Z,101514.41
2019-03-26T04:15:07.072Z,101516.59
2019-03-26T04:17:38.388Z,101513.96
2019-03-26T04:20:21.952Z,101508.67
2019-03-26T04:22:53.384Z,101516.59
2019-03-26T04:25:24.707Z,101520.53
2019-03-26T04:27:56.037Z,101509.56
2019-03-26T04:30:31.767Z,101511.30
2019-03-26T04:33:04.359Z,101514.34
2019-03-26T04:35:35.777Z,101508.56
2019-03-26T04:38:07.103Z,101507.63
2019-03-26T04:40:38.733Z,101500.61
2019-03-26T04:43:10.052Z,101493.58
2019-03-26T04:45:41.582Z,101496.21
2019-03-26T04:48:12.916Z,101504.86
2019-03-26T04:50:44.245Z,101503.03
2019-03-26T04:53:15.568Z,101502.55
2019-03-26T04:55:47.097Z,101499.84
2019-03-26T04:58:18.421Z,101501.16
2019-03-26T05:00:50.050Z,101494.84
2019-03-26T05:03:21.378Z,101488.72
2019-03-26T05:05:52.895Z,101484.17
2019-03-26T05:08:24.224Z,101480.16
2019-03-26T05:10:55.557Z,101483.61
2019-03-26T05:13:26.981Z,101483.50
2019-03-26T05:15:58.712Z,101486.05
2019-03-26T05:18:30.040Z,101482.48
2019-03-26T05:21:01.366Z,101486.31
2019-03-26T05:23:32.693Z,101491.99
2019-03-26T05:26:04.024Z,101494.95
2019-03-26T05:28:35.345Z,101487.88
2019-03-26T05:31:09.458Z,101488.34
2019-03-26T05:33:43.326Z,101485.09
2019-03-26T05:36:14.649Z,101476.70
2019-03-26T05:38:45.973Z,101476.25
2019-03-26T05:41:17.307Z,101466.87
2019-03-26T05:43:48.628Z,101471.43
2019-03-26T05:46:19.959Z,101477.07
2019-03-26T05:48:51.283Z,101473.03
2019-03-26T05:51:22.611Z,101472.78
2019-03-26T05:53:53.942Z,101472.56
2019-03-26T05:56:25.291Z,101471.61
2019-03-26T05:58:56.602Z,101467.34
2019-03-26T06:01:27.938Z,101470.71
2019-03-26T06:03:59.269Z,101468.71
2019-03-26T06:06:30.799Z,101470.89
2019-03-26T06:09:02.326Z,101459.90
2019-03-26T06:11:33.919Z,101462.53
2019-03-26T06:14:05.254Z,101466.70
2019-03-26T06:16:38.567Z,101466.44
2019-03-26T06:19:09.635Z,101467.66
2019-03-26T06:21:41.078Z,101463.97
2019-03-26T06:24:12.503Z,101459.58
2019-03-26T06:26:44.040Z,101465.29
2019-03-26T06:29:15.375Z,101454.00
2019-03-26T06:31:46.730Z,101447.91
2019-03-26T06:34:18.357Z,101442.03
2019-03-26T06:36:49.696Z,101441.03
2019-03-26T06:39:21.220Z,101438.73
2019-03-26T06:41:52.649Z,101440.96
2019-03-26T06:44:23.971Z,101430.14
2019-03-26T06:46:55.303Z,101433.46
2019-03-26T06:49:27.900Z,101430.33
2019-03-26T06:52:00.913Z,101434.55
2019-03-26T06:54:32.232Z,101435.76
2019-03-26T06:57:04.000Z,101434.43
2019-03-26T06:59:35.325Z,101427.11
2019-03-26T07:02:06.750Z,101419.83
2019-03-26T07:04:47.881Z,101421.27
2019-03-26T07:07:31.062Z,101421.47
2019-03-26T07:09:52.236Z,101415.04
2019-03-26T07:12:23.976Z,101419.91
2019-03-26T07:14:55.426Z,101408.34
2019-03-26T07:17:27.476Z,101414.80
2019-03-26T07:19:58.900Z,101414.58
2019-03-26T07:22:30.249Z,101407.05
2019-03-26T07:25:01.591Z,101404.15
2019-03-26T07:27:32.910Z,101397.64
2019-03-26T07:30:07.025Z,101403.53
2019-03-26T07:32:38.366Z,101406.80
2019-03-26T07:35:09.751Z,101412.64
2019-03-26T07:37:47.368Z,101407.16
2019-03-26T07:40:20.526Z,101399.49
2019-03-26T07:42:51.859Z,101391.34
2019-03-26T07:45:23.177Z,101395.87
2019-03-26T07:47:54.714Z,101386.61
2019-03-26T07:50:26.038Z,101376.72
2019-03-26T07:52:57.378Z,101376.33
2019-03-26T07:55:29.019Z,101363.55
2019-03-26T07:58:00.388Z,101367.98
2019-03-26T08:00:35.750Z,101370.09
2019-03-26T08:03:07.551Z,101368.03
2019-03-26T08:05:38.913Z,101356.38
2019-03-26T08:08:10.239Z,101361.09
2019-03-26T08:10:41.571Z,101353.70
2019-03-26T08:13:12.934Z,101346.57
2019-03-26T08:15:44.272Z,101359.06
2019-03-26T08:18:15.590Z,101354.77
2019-03-26T08:20:47.223Z,101352.36
2019-03-26T08:23:18.570Z,101349.24
2019-03-26T08:25:49.892Z,101355.98
2019-03-26T08:28:22.398Z,101350.81
2019-03-26T08:30:54.904Z,101360.48
2019-03-26T08:33:26.239Z,101350.88
2019-03-26T08:35:57.762Z,101359.06
2019-03-26T08:38:33.287Z,101359.83
2019-03-26T08:41:03.152Z,101348.33
2019-03-26T08:43:34.485Z,101354.01
2019-03-26T08:46:05.868Z,101340.11
2019-03-26T08:48:37.201Z,101352.09
2019-03-26T08:51:08.628Z,101358.95
2019-03-26T08:53:40.059Z,101359.11
2019-03-26T08:56:11.391Z,101357.37
2019-03-26T08:58:43.991Z,101367.31
2019-03-26T09:01:15.309Z,101355.86
2019-03-26T09:03:46.841Z,101361.67
2019-03-26T09:06:18.183Z,101372.65
2019-03-26T09:08:49.719Z,101372.59
2019-03-26T09:11:21.037Z,101373.72
2019-03-26T09:13:52.671Z,101367.52
2019-03-26T09:16:25.264Z,101386.72
2019-03-26T09:18:56.588Z,101390.00
2019-03-26T09:21:27.908Z,101391.50
2019-03-26T09:23:59.251Z,101397.07
2019-03-26T09:26:30.572Z,101401.33
2019-03-26T09:29:01.931Z,101425.42
2019-03-26T09:31:33.245Z,101431.41
2019-03-26T09:34:04.576Z,101417.34
2019-03-26T09:36:36.009Z,101433.54
2019-03-26T09:39:08.811Z,101442.27
2019-03-26T09:41:40.345Z,101447.63
2019-03-26T09:44:11.655Z,101440.44
2019-03-26T09:46:42.987Z,101429.80
2019-03-26T09:49:16.149Z,101423.48
2019-03-26T09:51:47.572Z,101421.16
2019-03-26T09:54:19.038Z,101403.08
2019-03-26T09:56:50.486Z,101407.56
2019-03-26T09:59:24.693Z,101400.61
2019-03-26T10:01:56.269Z,101400.95
2019-03-26T10:04:27.787Z,101398.05
2019-03-26T10:07:02.511Z,101395.17
2019-03-26T10:09:33.894Z,101394.89
2019-03-26T10:12:07.157Z,101391.78
2019-03-26T10:14:39.729Z,101391.73
2019-03-26T10:17:11.526Z,101383.80
2019-03-26T10:19:42.948Z,101385.59
2019-03-26T10:22:14.441Z,101387.31
2019-03-26T10:24:45.757Z,101389.09
2019-03-26T10:27:17.080Z,101385.73
2019-03-26T10:29:48.416Z,101382.70
2019-03-26T10:32:19.738Z,101381.25
2019-03-26T10:34:51.055Z,101394.48
2019-03-26T10:37:22.372Z,101388.70
2019-03-26T10:39:53.699Z,101375.87
2019-03-26T10:42:25.119Z,101379.19
2019-03-26T10:44:56.841Z,101363.09
2019-03-26T10:47:28.164Z,101379.42
2019-03-26T10:49:59.784Z,101361.53
2019-03-26T10:52:34.392Z,101360.25
2019-03-26T10:55:06.177Z,101360.18
2019-03-26T10:57:37.501Z,101354.52
2019-03-26T11:00:08.918Z,101347.36
2019-03-26T11:02:40.264Z,101339.89
2019-03-26T11:05:11.573Z,101344.97
2019-03-26T11:07:42.986Z,101337.23
2019-03-26T11:10:15.358Z,101346.05
2019-03-26T11:12:46.677Z,101333.61
2019-03-26T11:15:18.298Z,101333.67
2019-03-26T11:17:49.617Z,101336.31
2019-03-26T11:20:22.312Z,101327.22
2019-03-26T11:22:53.706Z,101326.14
2019-03-26T11:25:25.027Z,101319.98
2019-03-26T11:27:56.621Z,101309.69
2019-03-26T11:30:27.940Z,101318.36
2019-03-26T11:32:59.261Z,101309.84
2019-03-26T11:35:30.579Z,101308.33
2019-03-26T11:38:02.317Z,101305.70
2019-03-26T11:40:33.640Z,101308.13
2019-03-26T11:43:04.963Z,101309.67
2019-03-26T11:45:36.281Z,101298.73
2019-03-26T11:48:09.261Z,101306.14
2019-03-26T11:50:40.781Z,101313.23
2019-03-26T11:53:12.205Z,101311.64
2019-03-26T11:55:43.525Z,101298.79
2019-03-26T11:58:15.123Z,101303.03
2019-03-26T12:00:46.469Z,101293.17
2019-03-26T12:03:18.003Z,101298.91
2019-03-26T12:05:49.407Z,101303.88
2019-03-26T12:08:20.743Z,101290.83
2019-03-26T12:10:52.065Z,101271.59
2019-03-26T12:13:23.503Z,101270.03
2019-03-26T12:15:54.915Z,101281.53
2019-03-26T12:18:26.257Z,101269.78
2019-03-26T12:20:57.622Z,101277.50
2019-03-26T12:23:28.966Z,101276.00
2019-03-26T12:26:00.500Z,101276.47
2019-03-26T12:28:31.835Z,101275.27
2019-03-26T12:31:04.017Z,101278.79
2019-03-26T12:33:36.430Z,101267.84
2019-03-26T12:36:07.692Z,101272.00
2019-03-26T12:38:39.236Z,101273.25
2019-03-26T12:41:10.561Z,101266.77
2019-03-26T12:43:42.174Z,101269.66
2019-03-26T12:46:13.582Z,101268.94
2019-03-26T12:48:44.915Z,101269.28
2019-03-26T12:51:16.232Z,101256.66
2019-03-26T12:53:47.596Z,101280.13
2019-03-26T12:56:18.921Z,101271.58
2019-03-26T12:58:50.234Z,101270.23
2019-03-26T13:01:21.545Z,101265.95
2019-03-26T13:03:52.858Z,101273.38
2019-03-26T13:06:24.171Z,101271.45
2019-03-26T13:08:55.540Z,101272.32
2019-03-26T13:11:26.883Z,101264.87
2019-03-26T13:13:59.909Z,101282.71
2019-03-26T13:19:20.741Z,101262.36
2019-03-26T13:21:52.364Z,101267.53
2019-03-26T13:24:24.734Z,101259.62
2019-03-26T13:27:00.074Z,101259.02
2019-03-26T13:29:31.395Z,101265.56
2019-03-26T13:32:02.720Z,101256.89
2019-03-26T13:34:34.048Z,101257.38
2019-03-26T13:37:05.656Z,101262.49
2019-03-26T13:39:43.077Z,101269.16
2019-03-26T13:42:10.082Z,101269.78
2019-03-26T13:44:42.971Z,101265.87
2019-03-26T13:47:16.196Z,101281.77
2019-03-26T13:49:49.395Z,101268.38
2019-03-26T13:52:20.705Z,101276.27
2019-03-26T13:54:52.027Z,101274.04
2019-03-26T13:57:23.353Z,101262.75
2019-03-26T13:59:55.036Z,101270.05
2019-03-26T14:02:26.653Z,101263.14
2019-03-26T14:04:58.377Z,101268.92
2019-03-26T14:07:31.131Z,101264.56
2019-03-26T14:10:02.455Z,101262.59
2019-03-26T14:12:34.444Z,101280.72
2019-03-26T14:15:07.340Z,101271.73
2019-03-26T14:17:38.659Z,101273.41
2019-03-26T14:20:14.591Z,101274.42
2019-03-26T14:22:45.964Z,101274.66
2019-03-26T14:25:17.683Z,101274.78
2019-03-26T14:27:49.435Z,101286.88
2019-03-26T14:30:36.370Z,101292.13
2019-03-26T14:33:08.014Z,101286.12
2019-03-26T14:35:39.529Z,101277.70
2019-03-26T14:38:10.909Z,101289.81
2019-03-26T14:40:53.893Z,101288.63
2019-03-26T14:43:15.377Z,101305.54
2019-03-26T14:45:48.315Z,101307.02
2019-03-26T14:48:21.409Z,101305.86
2019-03-26T14:51:04.126Z,101304.14
2019-03-26T14:53:40.019Z,101301.34
2019-03-26T14:56:16.356Z,101293.14
2019-03-26T14:58:48.661Z,101299.41
2019-03-26T15:01:21.742Z,101299.22
2019-03-26T15:03:57.289Z,101286.53
2019-03-26T15:06:30.055Z,101300.79
2019-03-26T15:09:12.956Z,101292.05
2019-03-26T15:11:57.529Z,101306.50
2019-03-26T15:14:36.643Z,101302.14
2019-03-26T15:17:11.010Z,101318.88
2019-03-26T15:19:42.350Z,101319.66
2019-03-26T15:22:13.679Z,101317.14
2019-03-26T15:24:45.087Z,101338.87
2019-03-26T15:27:17.780Z,101332.87
2019-03-26T15:29:49.111Z,101333.91
2019-03-26T15:32:20.439Z,101325.25
2019-03-26T15:34:51.779Z,101325.37
2019-03-26T15:37:24.384Z,101314.91
2019-03-26T15:39:55.814Z,101320.66
2019-03-26T15:42:27.279Z,101327.83
2019-03-26T15:44:58.616Z,101329.06
2019-03-26T15:47:29.973Z,101321.68
2019-03-26T15:50:01.318Z,101330.17
2019-03-26T15:52:35.005Z,101333.15
2019-03-26T15:55:14.589Z,101343.85
2019-03-26T15:57:56.290Z,101348.69
2019-03-26T16:00:33.024Z,101352.06
2019-03-26T16:03:05.590Z,101364.50
2019-03-26T16:05:42.278Z,101365.20
2019-03-26T16:08:13.904Z,101363.88
2019-03-26T16:10:45.243Z,101371.81
2019-03-26T16:13:16.602Z,101375.66
2019-03-26T16:15:47.935Z,101379.11
2019-03-26T16:18:20.392Z,101379.11
2019-03-26T16:20:51.746Z,101382.95
2019-03-26T16:23:25.092Z,101387.35
2019-03-26T16:25:56.128Z,101389.57
2019-03-26T16:28:27.470Z,101388.38
2019-03-26T16:31:06.842Z,101380.03
2019-03-26T16:33:38.448Z,101389.30
2019-03-26T16:36:10.919Z,101391.55
2019-03-26T16:38:42.244Z,101400.22
2019-03-26T16:41:14.312Z,101399.30
2019-03-26T16:43:48.215Z,101402.41
2019-03-26T16:46:22.472Z,101407.22
2019-03-26T16:48:55.460Z,101419.16
2019-03-26T16:51:26.828Z,101415.66
2019-03-26T16:53:58.167Z,101423.20
2019-03-26T16:56:29.551Z,101427.63
2019-03-26T16:59:00.867Z,101426.37
2019-03-26T17:01:32.642Z,101428.34
2019-03-26T17:04:03.985Z,101434.31
2019-03-26T17:06:35.361Z,101433.17
2019-03-26T17:09:07.977Z,101436.44
2019-03-26T17:11:39.316Z,101437.48
2019-03-26T17:14:11.518Z,101444.16
2019-03-26T17:16:42.882Z,101443.42
2019-03-26T17:19:14.895Z,101445.14
2019-03-26T17:21:47.488Z,101449.92
2019-03-26T17:24:19.043Z,101446.47
2019-03-26T17:26:50.410Z,101452.25
2019-03-26T17:29:21.800Z,101441.27
2019-03-26T17:31:55.862Z,101449.33
2019-03-26T17:34:27.376Z,101454.73
2019-03-26T17:36:58.763Z,101465.84
2019-03-26T17:39:31.613Z,101468.48
2019-03-26T17:42:16.215Z,101472.86
2019-03-26T17:44:36.495Z,101477.69
2019-03-26T17:47:07.988Z,101492.19
2019-03-26T17:49:41.705Z,101487.81
2019-03-26T17:52:13.383Z,101490.47
2019-03-26T17:54:44.723Z,101494.37
2019-03-26T17:57:16.084Z,101497.08
2019-03-26T17:59:50.166Z,101493.52
2019-03-26T18:02:21.539Z,101492.59
2019-03-26T18:04:52.912Z,101497.89
2019-03-26T18:07:24.970Z,101505.30
2019-03-26T18:09:56.608Z,101506.62
2019-03-26T18:12:30.991Z,101507.14
2019-03-26T18:15:05.023Z,101515.14
2019-03-26T18:17:36.428Z,101515.09
2019-03-26T18:20:09.373Z,101523.43
2019-03-26T18:22:40.798Z,101525.16
2019-03-26T18:25:12.334Z,101527.00
2019-03-26T18:27:43.808Z,101532.29
2019-03-26T18:30:15.367Z,101542.88
2019-03-26T18:32:49.191Z,101548.98
2019-03-26T18:35:21.826Z,101561.75
2019-03-26T18:37:53.175Z,101559.97
2019-03-26T18:40:25.008Z,101570.15
2019-03-26T18:42:58.914Z,101586.03
2019-03-26T18:45:30.471Z,101593.79
2019-03-26T18:48:09.011Z,101607.69
2019-03-26T18:50:50.911Z,101619.13
2019-03-26T18:53:23.667Z,101616.01
2019-03-26T18:56:04.238Z,101622.39
2019-03-26T18:58:45.230Z,101626.53
2019-03-26T19:01:27.404Z,101639.34
2019-03-26T19:04:03.189Z,101641.27
2019-03-26T19:06:41.298Z,101645.97
2019-03-26T19:09:15.207Z,101657.00
2019-03-26T19:11:46.952Z,101667.06
2019-03-26T19:14:21.474Z,101672.64
2019-03-26T19:16:53.410Z,101676.36
2019-03-26T19:19:29.844Z,101686.11
2019-03-26T19:22:01.215Z,101689.83
2019-03-26T19:24:34.303Z,101691.75
2019-03-26T19:27:06.600Z,101692.66
2019-03-26T19:29:40.313Z,101690.98
2019-03-26T19:32:13.325Z,101691.99
2019-03-26T19:34:46.831Z,101707.11
2019-03-26T19:37:20.020Z,101711.63
2019-03-26T19:39:54.531Z,101714.37
2019-03-26T19:42:26.484Z,101720.11
2019-03-26T19:44:59.450Z,101714.37
2019-03-26T19:47:30.943Z,101721.37
2019-03-26T19:50:02.723Z,101719.65
2019-03-26T19:52:35.242Z,101718.33
2019-03-26T19:55:08.120Z,101720.06
2019-03-26T19:57:46.014Z,101727.57
2019-03-26T20:00:19.650Z,101731.08
2019-03-26T20:02:52.626Z,101731.53
2019-03-26T20:05:23.974Z,101738.55
2019-03-26T20:07:55.315Z,101748.11
2019-03-26T20:10:29.861Z,101745.87
2019-03-26T20:13:03.060Z,101751.13
2019-03-26T20:15:37.388Z,101760.77
2019-03-26T20:18:11.905Z,101769.20
2019-03-26T20:20:45.126Z,101772.30
2019-03-26T20:23:24.843Z,101775.34
2019-03-26T20:25:52.162Z,101788.64
2019-03-26T20:28:28.923Z,101785.02
2019-03-26T20:31:01.791Z,101785.77
2019-03-26T20:33:33.175Z,101785.06
2019-03-26T20:36:06.381Z,101791.38
2019-03-26T20:38:43.072Z,101801.14
2019-03-26T20:41:16.231Z,101805.22
2019-03-26T20:43:51.361Z,101806.58
2019-03-26T20:46:22.693Z,101808.96
2019-03-26T20:48:54.029Z,101818.23
2019-03-26T20:51:34.351Z,101814.43
2019-03-26T20:54:07.605Z,101810.97
2019-03-26T20:56:40.826Z,101821.62
2019-03-26T20:59:12.074Z,101823.58
2019-03-26T21:01:45.672Z,101819.32
2019-03-26T21:04:20.418Z,101823.38
2019-03-26T21:06:58.172Z,101826.64
2019-03-26T21:09:31.081Z,101829.87
2019-03-26T21:12:02.627Z,101837.05
2019-03-26T21:14:33.985Z,101830.66
2019-03-26T21:17:05.411Z,101837.41
2019-03-26T21:19:37.123Z,101840.56
2019-03-26T21:22:12.756Z,101842.90
2019-03-26T21:24:47.155Z,101848.32
2019-03-26T21:27:23.239Z,101851.07
2019-03-26T21:30:09.764Z,101853.86
2019-03-26T21:32:31.143Z,101851.31
2019-03-26T21:35:07.367Z,101863.66
2019-03-26T21:37:42.814Z,101862.85
2019-03-26T21:40:15.795Z,101866.41
2019-03-26T21:42:47.904Z,101868.73
2019-03-26T21:45:29.971Z,101869.20
2019-03-26T21:48:03.927Z,101866.65
2019-03-26T21:50:37.927Z,101875.56
2019-03-26T21:53:13.349Z,101875.30
2019-03-26T21:55:48.744Z,101871.61
2019-03-26T21:58:21.667Z,101870.92
2019-03-26T22:00:56.044Z,101877.17
2019-03-26T22:03:32.761Z,101879.85
2019-03-26T22:06:04.098Z,101885.13
2019-03-26T22:08:38.947Z,101886.94
2019-03-26T22:11:11.749Z,101887.41
2019-03-26T22:13:45.900Z,101885.28
2019-03-26T22:16:22.977Z,101881.41
2019-03-26T22:18:57.866Z,101888.10
2019-03-26T22:21:29.191Z,101893.91
2019-03-26T22:24:00.542Z,101897.55
2019-03-26T22:26:33.519Z,101908.55
2019-03-26T22:29:04.841Z,101909.45
2019-03-26T22:31:36.188Z,101907.70
2019-03-26T22:34:08.109Z,101915.58
2019-03-26T22:36:39.556Z,101913.88
2019-03-26T22:39:12.138Z,101915.69
2019-03-26T22:41:43.796Z,101919.21
2019-03-26T22:44:15.222Z,101914.89
2019-03-26T22:46:46.580Z,101923.66
2019-03-26T22:49:18.208Z,101926.31
2019-03-26T22:51:49.582Z,101933.33
2019-03-26T22:54:20.951Z,101939.47
2019-03-26T22:56:52.319Z,101939.05
2019-03-26T22:59:27.009Z,101942.55
2019-03-26T23:01:59.761Z,101942.13
2019-03-26T23:04:31.108Z,101948.67
2019-03-26T23:07:03.027Z,101948.70
2019-03-26T23:09:34.345Z,101951.81
2019-03-26T23:12:05.710Z,101959.67
2019-03-26T23:14:45.084Z,101962.30
2019-03-26T23:17:10.322Z,101960.59
2019-03-26T23:19:41.629Z,101959.31
2019-03-26T23:22:13.180Z,101958.47
2019-03-26T23:24:44.520Z,101956.31
2019-03-26T23:27:15.858Z,101962.05
2019-03-26T23:29:47.201Z,101960.78
2019-03-26T23:32:19.189Z,101964.29
2019-03-26T23:34:50.715Z,101962.09
2019-03-26T23:37:22.070Z,101963.86
2019-03-26T23:39:54.501Z,101964.31
2019-03-26T23:42:26.330Z,101961.73
2019-03-26T23:44:58.815Z,101962.16
2019-03-26T23:47:30.503Z,101964.38
2019-03-26T23:50:01.834Z,101960.44
2019-03-26T23:52:33.391Z,101973.13
2019-03-26T23:55:06.802Z,101977.96
2019-03-26T23:57:38.475Z,101980.13
